RoSS Sea — WDE3122 — position and weather

sailwx.info

Track history (hours):
 
Tides and Currents Weather Stations Pressure Air Temp Water Temp Dewpoint Dewpoint Depression Visibility Wind Speed Wind Dir Waves Ship Positions

RoSS Sea

Owner: Kirby Inland Marine, LP, Houston, TX. More information available from US FCC via Universal Licensing System and Coast Guard Vessel Documentation Center.

Last reported at 2015-Apr-27 23:33 UTC. Time now 2015-Apr-28 00:32 UTC.
Position N 40°38' W 074°10'.

Length 30 m; draft 5 m.

Type: Tow > 200 m length. MMSI: 367334360.

Date/timePositionNaut miles runAvg speedWind from/ knotsBaromVisibWave heightAir tempDewpointWater temp
2015-Apr-27 23:33N 40°38' W 074°10'0 0.0
2015-Apr-27 22:33N 40°38' W 074°10'0 0.0
2015-Apr-27 21:33N 40°38' W 074°10'0 0.0
2015-Apr-27 20:34N 40°38' W 074°10'0 0.0
2015-Apr-27 19:34N 40°38' W 074°10'0 0.0
2015-Apr-27 18:34N 40°38' W 074°10'0 0.0
2015-Apr-27 17:34N 40°38' W 074°10'0 0.0
2015-Apr-27 16:33N 40°38' W 074°10'0 0.3
2015-Apr-27 15:34N 40°39' W 074°10'7 7.3
2015-Apr-27 14:33N 40°32' W 074°15'0 0.0
2015-Apr-27 13:08N 40°32' W 074°15'4 7.7
2015-Apr-27 12:33N 40°36' W 074°12'3 2.9
2015-Apr-27 11:33N 40°39' W 074°10'0 0.0
2015-Apr-27 10:34N 40°39' W 074°10'0 0.0
2015-Apr-27 09:33N 40°39' W 074°10'8 7.5
2015-Apr-27 08:34N 40°43' W 074°02'9 9.1
2015-Apr-27 07:34N 40°51' W 073°57'5 3.5
2015-Apr-27 06:07N 40°56' W 073°55'2 3.5
2015-Apr-27 05:28N 40°54' W 073°55'6 6.3
2015-Apr-27 04:34N 40°48' W 073°59'9 9.0
2015-Apr-27 03:34N 40°40' W 074°03'6 5.5
2015-Apr-27 02:34N 40°39' W 074°10'0 0.0
2015-Apr-27 01:33N 40°39' W 074°10'0 0.0
2015-Apr-27 00:34N 40°39' W 074°10'0 0.0
2015-Apr-26 23:34N 40°39' W 074°10'0 0.0
2015-Apr-26 22:34N 40°39' W 074°10'0 0.0
2015-Apr-26 21:33N 40°39' W 074°10'0 0.0
2015-Apr-26 20:33N 40°39' W 074°10'0 0.0
2015-Apr-26 19:34N 40°39' W 074°10'0 0.0
2015-Apr-26 18:34N 40°39' W 074°10'0 0.0
2015-Apr-26 17:33N 40°39' W 074°10'0 0.0
2015-Apr-26 16:34N 40°39' W 074°10'0 0.0
2015-Apr-26 15:34N 40°39' W 074°10'0 0.0
2015-Apr-26 14:33N 40°39' W 074°10'0 0.0
2015-Apr-26 13:33N 40°39' W 074°10'0 0.0
2015-Apr-26 12:34N 40°39' W 074°10'0 0.0
2015-Apr-26 11:34N 40°39' W 074°10'0 0.0
2015-Apr-26 10:33N 40°39' W 074°10'0 0.0
2015-Apr-26 09:33N 40°39' W 074°10'0 0.0
2015-Apr-26 08:34N 40°39' W 074°10'0 0.0
2015-Apr-26 07:34N 40°39' W 074°10'0 0.0
2015-Apr-26 06:33N 40°39' W 074°10'0 0.0
2015-Apr-26 05:33N 40°39' W 074°10'0 0.0
2015-Apr-26 04:34N 40°39' W 074°10'0 0.0
2015-Apr-26 03:34N 40°39' W 074°10'0 0.0
2015-Apr-26 02:34N 40°39' W 074°10'0 0.0
2015-Apr-26 01:34N 40°39' W 074°10'0 0.0
2015-Apr-26 00:33N 40°39' W 074°10'0 0.1
2015-Apr-25 23:34N 40°39' W 074°10'0 0.1
2015-Apr-25 22:34N 40°39' W 074°10'0 0.0
2015-Apr-25 21:33N 40°39' W 074°10'0 0.0
2015-Apr-25 20:33N 40°39' W 074°10'0 0.0
2015-Apr-25 19:32N 40°39' W 074°10'0 0.0
2015-Apr-25 18:34N 40°39' W 074°10'0 0.0
2015-Apr-25 17:34N 40°39' W 074°10'0 0.0
2015-Apr-25 16:33N 40°39' W 074°10'0 0.0
2015-Apr-25 15:28N 40°39' W 074°10'2 2.2
2015-Apr-25 14:33N 40°38' W 074°12'6 6.5
2015-Apr-25 13:34N 40°40' W 074°04'7 7.4
2015-Apr-25 12:34N 40°44' W 073°57'0 0.4
2015-Apr-25 11:33N 40°44' W 073°56'1 1.2
2015-Apr-25 10:34N 40°44' W 073°58'7 7.5
2015-Apr-25 09:34N 40°39' W 074°05'4 3.7
2015-Apr-25 08:33N 40°39' W 074°10'0 0.0
2015-Apr-25 07:34N 40°39' W 074°10'0 0.0
2015-Apr-25 06:34N 40°39' W 074°10'9 8.7
2015-Apr-25 05:33N 40°42' W 073°60'3 2.9
2015-Apr-25 04:34N 40°44' W 073°56'1 0.7
2015-Apr-25 03:34N 40°44' W 073°57'6 5.7
2015-Apr-25 02:34N 40°40' W 074°02'7 6.7
2015-Apr-25 01:33N 40°39' W 074°11'3 0.6
2015-Apr-24 20:31N 40°36' W 074°12'3 3.1
2015-Apr-24 19:34N 40°39' W 074°10'0 0.0
2015-Apr-24 18:33N 40°39' W 074°10'0 0.0
2015-Apr-24 17:34N 40°39' W 074°10'0 0.0
2015-Apr-24 16:33N 40°39' W 074°10'6 6.3
2015-Apr-24 15:34N 40°40' W 074°02'0 0.1
2015-Apr-24 14:33N 40°40' W 074°02'6 6.2
2015-Apr-24 13:34N 40°38' W 074°10'0 0.0
2015-Apr-24 12:33N 40°38' W 074°10'0 0.0
2015-Apr-24 11:34N 40°38' W 074°10'4 3.6
2015-Apr-24 10:33N 40°35' W 074°12'2 1.7
2015-Apr-24 09:33N 40°37' W 074°12'7 7.2
2015-Apr-24 08:33N 40°39' W 074°03'5 4.6
2015-Apr-24 07:33N 40°38' W 074°09'1 0.7
2015-Apr-24 06:34N 40°39' W 074°10'0 0.0
2015-Apr-24 05:33N 40°39' W 074°10'0 0.0
2015-Apr-24 04:34N 40°39' W 074°10'0 0.0
2015-Apr-24 03:33N 40°39' W 074°10'3 3.0
2015-Apr-24 02:33N 40°36' W 074°12'3 3.0
2015-Apr-24 01:33N 40°39' W 074°10'0 0.0
2015-Apr-24 00:32N 40°39' W 074°10'0 0.0
2015-Apr-23 23:34N 40°39' W 074°10'2 2.0
2015-Apr-23 22:34N 40°39' W 074°07'6 6.4
2015-Apr-23 21:34N 40°43' W 074°01'1211.9
2015-Apr-23 20:33N 40°54' W 073°55'2 1.7
2015-Apr-23 19:31N 40°56' W 073°54'0 0.1
2015-Apr-23 15:33N 40°56' W 073°55'10 9.6
2015-Apr-23 14:34N 40°47' W 073°60'9 8.7
2015-Apr-23 13:33N 40°39' W 074°05'4 3.6
2015-Apr-23 12:34N 40°38' W 074°10'0 0.0
2015-Apr-23 11:34N 40°38' W 074°10'0 0.0
2015-Apr-23 10:34N 40°39' W 074°10'0 0.0
2015-Apr-23 09:32N 40°39' W 074°10'0 0.0
2015-Apr-23 08:33N 40°39' W 074°10'0 0.0
2015-Apr-23 07:33N 40°39' W 074°10'0 0.0
2015-Apr-23 06:34N 40°39' W 074°10'0 0.0
2015-Apr-23 05:33N 40°39' W 074°10'0 0.0
2015-Apr-23 04:34N 40°39' W 074°10'0 0.0
2015-Apr-23 03:34N 40°39' W 074°10'4 3.5
2015-Apr-23 02:30N 40°35' W 074°12'3 3.6
2015-Apr-23 01:32N 40°39' W 074°11'1 1.1
2015-Apr-23 00:33N 40°39' W 074°10'0 0.0
2015-Apr-22 23:34N 40°39' W 074°10'0 0.0
2015-Apr-22 22:34N 40°39' W 074°10'0 0.0
2015-Apr-22 21:33N 40°39' W 074°10'0 0.0
2015-Apr-22 20:33N 40°39' W 074°10'0 0.0
2015-Apr-22 19:33N 40°39' W 074°10'0 0.0
2015-Apr-22 18:33N 40°39' W 074°10'3 2.3
2015-Apr-22 17:16N 40°36' W 074°12'1 1.7
2015-Apr-22 16:33N 40°37' W 074°12'2 2.1
2015-Apr-22 15:34N 40°39' W 074°10'0 0.1
2015-Apr-22 14:34N 40°39' W 074°10'0 0.0
2015-Apr-22 13:33N 40°39' W 074°10'0 0.0
2015-Apr-22 12:34N 40°39' W 074°10'0 0.0
2015-Apr-22 11:33N 40°39' W 074°10'0 0.0
2015-Apr-22 10:34N 40°39' W 074°10'0 0.0
2015-Apr-22 09:33N 40°39' W 074°10'0 0.0
2015-Apr-22 08:33N 40°39' W 074°10'0 0.0
2015-Apr-22 07:33N 40°39' W 074°10'0 0.0
2015-Apr-22 06:33N 40°39' W 074°10'0 0.0
2015-Apr-22 05:33N 40°39' W 074°10'0 0.0
2015-Apr-22 04:33N 40°39' W 074°10'0 0.0
2015-Apr-22 03:33N 40°39' W 074°10'0 0.0
2015-Apr-22 02:32N 40°39' W 074°10'0 0.0
2015-Apr-22 01:33N 40°39' W 074°10'0 0.0
2015-Apr-22 00:33N 40°39' W 074°10'2 2.4
2015-Apr-21 23:33N 40°37' W 074°12'2 2.3
2015-Apr-21 22:33N 40°39' W 074°11'1 0.9
2015-Apr-21 21:34N 40°39' W 074°09'8 6.1
2015-Apr-21 20:19N 40°33' W 074°15'1 0.5
2015-Apr-21 18:14N 40°33' W 074°14'6 9.0
2015-Apr-21 17:33N 40°39' W 074°11'1 0.7
2015-Apr-21 16:34N 40°38' W 074°10'0 0.0
2015-Apr-21 15:33N 40°38' W 074°10'0 0.0
2015-Apr-21 14:34N 40°38' W 074°10'0 0.0
2015-Apr-21 13:33N 40°38' W 074°10'0 0.0
2015-Apr-21 12:33N 40°38' W 074°10'5 4.6
2015-Apr-21 11:34N 40°40' W 074°04'5 4.6
2015-Apr-21 10:33N 40°39' W 074°10'0 0.0
2015-Apr-21 09:33N 40°39' W 074°10'0 0.0
2015-Apr-21 08:22N 40°39' W 074°10'0 0.0
2015-Apr-21 07:33N 40°39' W 074°10'0 0.0
2015-Apr-21 06:33N 40°39' W 074°10'0 0.0
2015-Apr-21 05:30N 40°39' W 074°10'0 0.0
2015-Apr-21 04:33N 40°39' W 074°10'0 0.0
2015-Apr-21 03:33N 40°39' W 074°10'0 0.0
2015-Apr-21 02:33N 40°39' W 074°10'0 0.0
2015-Apr-21 01:34N 40°39' W 074°10'2 2.3
2015-Apr-21 00:34N 40°37' W 074°12'1 0.6
2015-Apr-20 23:33N 40°38' W 074°12'6 5.3
2015-Apr-20 22:31N 40°33' W 074°15'0 0.3
2015-Apr-20 21:30N 40°32' W 074°15'0 0.0
2015-Apr-20 19:22N 40°32' W 074°15'0 0.0
2015-Apr-20 18:13N 40°32' W 074°15'7 9.6
2015-Apr-20 17:32N 40°38' W 074°12'1 1.4
2015-Apr-20 16:33N 40°39' W 074°10'0 0.0
2015-Apr-20 15:33N 40°39' W 074°10'3 2.7
2015-Apr-20 14:33N 40°39' W 074°06'1 1.0
2015-Apr-20 13:34N 40°39' W 074°05'4 3.7
2015-Apr-20 12:33N 40°39' W 074°10'0 0.0
2015-Apr-20 11:32N 40°39' W 074°10'0 0.0
2015-Apr-20 10:32N 40°39' W 074°10'0 0.0
2015-Apr-20 09:30N 40°39' W 074°10'4 3.9
2015-Apr-20 08:33N 40°39' W 074°05'1 0.8
2015-Apr-20 07:33N 40°39' W 074°06'0 0.0
2015-Apr-20 06:33N 40°39' W 074°06'3 2.9
2015-Apr-20 05:33N 40°38' W 074°10'0 0.2
2015-Apr-20 04:21N 40°39' W 074°10'0 0.0
2015-Apr-20 03:33N 40°39' W 074°10'0 0.0
2015-Apr-20 02:32N 40°39' W 074°10'0 0.0
2015-Apr-20 01:33N 40°39' W 074°10'2 0.6
2015-Apr-19 21:33N 40°37' W 074°12'2 2.3
2015-Apr-19 20:34N 40°39' W 074°10'0 0.0
2015-Apr-19 19:33N 40°39' W 074°10'0 0.0
2015-Apr-19 18:33N 40°39' W 074°10'0 0.0
2015-Apr-19 17:34N 40°39' W 074°10'5 4.6
2015-Apr-19 16:34N 40°40' W 074°04'0 0.0
2015-Apr-19 15:33N 40°40' W 074°04'0 0.0
2015-Apr-19 14:34N 40°40' W 074°04'1 1.3
2015-Apr-19 13:34N 40°39' W 074°05'1 1.1
2015-Apr-19 12:34N 40°39' W 074°04'4 4.5
2015-Apr-19 11:34N 40°38' W 074°10'5 4.8
2015-Apr-19 10:34N 40°39' W 074°04'5 4.9
2015-Apr-19 09:34N 40°42' W 073°58'3 3.5
2015-Apr-19 08:34N 40°40' W 074°02'5 5.5
2015-Apr-19 07:34N 40°38' W 074°09'1 0.6
2015-Apr-19 06:33N 40°39' W 074°10'0 0.0
2015-Apr-19 05:33N 40°39' W 074°10'0 0.0
2015-Apr-19 04:32N 40°39' W 074°10'3 3.0
2015-Apr-19 03:34N 40°39' W 074°06'3 2.9
2015-Apr-19 02:34N 40°39' W 074°10'0 0.0
2015-Apr-19 01:33N 40°39' W 074°10'0 0.0
2015-Apr-19 00:34N 40°39' W 074°10'1 1.5
2015-Apr-18 23:34N 40°39' W 074°08'1 1.4
2015-Apr-18 22:34N 40°39' W 074°10'9 9.1
2015-Apr-18 21:34N 40°43' W 073°59'7 6.5
2015-Apr-18 20:33N 40°48' W 073°54'2 2.4
2015-Apr-18 19:33N 40°46' W 073°57'4 4.2
2015-Apr-18 18:34N 40°43' W 073°59'9 9.3
2015-Apr-18 17:34N 40°39' W 074°10'0 0.0
2015-Apr-18 16:34N 40°39' W 074°10'0 0.0
2015-Apr-18 15:33N 40°39' W 074°10'0 0.0
2015-Apr-18 14:34N 40°39' W 074°10'0 0.0
2015-Apr-18 13:34N 40°39' W 074°10'0 0.0
2015-Apr-18 12:33N 40°39' W 074°10'0 0.0
2015-Apr-18 11:34N 40°39' W 074°10'0 0.0
2015-Apr-18 10:34N 40°39' W 074°10'0 0.0
2015-Apr-18 09:33N 40°39' W 074°10'0 0.0
2015-Apr-18 08:34N 40°39' W 074°10'0 0.0
2015-Apr-18 07:33N 40°39' W 074°10'0 0.0
2015-Apr-18 06:27N 40°39' W 074°10'0 0.0
2015-Apr-18 05:25N 40°39' W 074°10'0 0.0
2015-Apr-18 04:32N 40°39' W 074°10'0 0.0
2015-Apr-18 03:32N 40°39' W 074°10'0 0.0
2015-Apr-18 02:33N 40°39' W 074°10'0 0.0
2015-Apr-18 01:31N 40°39' W 074°10'0 0.0
2015-Apr-18 00:33N 40°39' W 074°10'  
Track history (hours):
 
Tides and Currents Weather Stations Pressure Air Temp Water Temp Dewpoint Dewpoint Depression Visibility Wind Speed Wind Dir Waves Ship Positions

RoSS Sea

Owner: Kirby Inland Marine, LP, Houston, TX. More information available from US FCC via Universal Licensing System and Coast Guard Vessel Documentation Center.

Last reported at 2015-Apr-27 23:33 UTC. Time now 2015-Apr-28 00:32 UTC.
Position N 40°38' W 074°10'.

Length 30 m; draft 5 m.

Type: Tow > 200 m length. MMSI: 367334360.

Date/timePositionNaut miles runAvg speedWind from/ knotsBaromVisibWave heightAir tempDewpointWater temp
2015-Apr-27 23:33N 40°38' W 074°10'0 0.0
2015-Apr-27 22:33N 40°38' W 074°10'0 0.0
2015-Apr-27 21:33N 40°38' W 074°10'0 0.0
2015-Apr-27 20:34N 40°38' W 074°10'0 0.0
2015-Apr-27 19:34N 40°38' W 074°10'0 0.0
2015-Apr-27 18:34N 40°38' W 074°10'0 0.0
2015-Apr-27 17:34N 40°38' W 074°10'0 0.0
2015-Apr-27 16:33N 40°38' W 074°10'0 0.3
2015-Apr-27 15:34N 40°39' W 074°10'7 7.3
2015-Apr-27 14:33N 40°32' W 074°15'0 0.0
2015-Apr-27 13:08N 40°32' W 074°15'4 7.7
2015-Apr-27 12:33N 40°36' W 074°12'3 2.9
2015-Apr-27 11:33N 40°39' W 074°10'0 0.0
2015-Apr-27 10:34N 40°39' W 074°10'0 0.0
2015-Apr-27 09:33N 40°39' W 074°10'8 7.5
2015-Apr-27 08:34N 40°43' W 074°02'9 9.1
2015-Apr-27 07:34N 40°51' W 073°57'5 3.5
2015-Apr-27 06:07N 40°56' W 073°55'2 3.5
2015-Apr-27 05:28N 40°54' W 073°55'6 6.3
2015-Apr-27 04:34N 40°48' W 073°59'9 9.0
2015-Apr-27 03:34N 40°40' W 074°03'6 5.5
2015-Apr-27 02:34N 40°39' W 074°10'0 0.0
2015-Apr-27 01:33N 40°39' W 074°10'0 0.0
2015-Apr-27 00:34N 40°39' W 074°10'0 0.0
2015-Apr-26 23:34N 40°39' W 074°10'0 0.0
2015-Apr-26 22:34N 40°39' W 074°10'0 0.0
2015-Apr-26 21:33N 40°39' W 074°10'0 0.0
2015-Apr-26 20:33N 40°39' W 074°10'0 0.0
2015-Apr-26 19:34N 40°39' W 074°10'0 0.0
2015-Apr-26 18:34N 40°39' W 074°10'0 0.0
2015-Apr-26 17:33N 40°39' W 074°10'0 0.0
2015-Apr-26 16:34N 40°39' W 074°10'0 0.0
2015-Apr-26 15:34N 40°39' W 074°10'0 0.0
2015-Apr-26 14:33N 40°39' W 074°10'0 0.0
2015-Apr-26 13:33N 40°39' W 074°10'0 0.0
2015-Apr-26 12:34N 40°39' W 074°10'0 0.0
2015-Apr-26 11:34N 40°39' W 074°10'0 0.0
2015-Apr-26 10:33N 40°39' W 074°10'0 0.0
2015-Apr-26 09:33N 40°39' W 074°10'0 0.0
2015-Apr-26 08:34N 40°39' W 074°10'0 0.0
2015-Apr-26 07:34N 40°39' W 074°10'0 0.0
2015-Apr-26 06:33N 40°39' W 074°10'0 0.0
2015-Apr-26 05:33N 40°39' W 074°10'0 0.0
2015-Apr-26 04:34N 40°39' W 074°10'0 0.0
2015-Apr-26 03:34N 40°39' W 074°10'0 0.0
2015-Apr-26 02:34N 40°39' W 074°10'0 0.0
2015-Apr-26 01:34N 40°39' W 074°10'0 0.0
2015-Apr-26 00:33N 40°39' W 074°10'0 0.1
2015-Apr-25 23:34N 40°39' W 074°10'0 0.1
2015-Apr-25 22:34N 40°39' W 074°10'0 0.0
2015-Apr-25 21:33N 40°39' W 074°10'0 0.0
2015-Apr-25 20:33N 40°39' W 074°10'0 0.0
2015-Apr-25 19:32N 40°39' W 074°10'0 0.0
2015-Apr-25 18:34N 40°39' W 074°10'0 0.0
2015-Apr-25 17:34N 40°39' W 074°10'0 0.0
2015-Apr-25 16:33N 40°39' W 074°10'0 0.0
2015-Apr-25 15:28N 40°39' W 074°10'2 2.2
2015-Apr-25 14:33N 40°38' W 074°12'6 6.5
2015-Apr-25 13:34N 40°40' W 074°04'7 7.4
2015-Apr-25 12:34N 40°44' W 073°57'0 0.4
2015-Apr-25 11:33N 40°44' W 073°56'1 1.2
2015-Apr-25 10:34N 40°44' W 073°58'7 7.5
2015-Apr-25 09:34N 40°39' W 074°05'4 3.7
2015-Apr-25 08:33N 40°39' W 074°10'0 0.0
2015-Apr-25 07:34N 40°39' W 074°10'0 0.0
2015-Apr-25 06:34N 40°39' W 074°10'9 8.7
2015-Apr-25 05:33N 40°42' W 073°60'3 2.9
2015-Apr-25 04:34N 40°44' W 073°56'1 0.7
2015-Apr-25 03:34N 40°44' W 073°57'6 5.7
2015-Apr-25 02:34N 40°40' W 074°02'7 6.7
2015-Apr-25 01:33N 40°39' W 074°11'3 0.6
2015-Apr-24 20:31N 40°36' W 074°12'3 3.1
2015-Apr-24 19:34N 40°39' W 074°10'0 0.0
2015-Apr-24 18:33N 40°39' W 074°10'0 0.0
2015-Apr-24 17:34N 40°39' W 074°10'0 0.0
2015-Apr-24 16:33N 40°39' W 074°10'6 6.3
2015-Apr-24 15:34N 40°40' W 074°02'0 0.1
2015-Apr-24 14:33N 40°40' W 074°02'6 6.2
2015-Apr-24 13:34N 40°38' W 074°10'0 0.0
2015-Apr-24 12:33N 40°38' W 074°10'0 0.0
2015-Apr-24 11:34N 40°38' W 074°10'4 3.6
2015-Apr-24 10:33N 40°35' W 074°12'2 1.7
2015-Apr-24 09:33N 40°37' W 074°12'7 7.2
2015-Apr-24 08:33N 40°39' W 074°03'5 4.6
2015-Apr-24 07:33N 40°38' W 074°09'1 0.7
2015-Apr-24 06:34N 40°39' W 074°10'0 0.0
2015-Apr-24 05:33N 40°39' W 074°10'0 0.0
2015-Apr-24 04:34N 40°39' W 074°10'0 0.0
2015-Apr-24 03:33N 40°39' W 074°10'3 3.0
2015-Apr-24 02:33N 40°36' W 074°12'3 3.0
2015-Apr-24 01:33N 40°39' W 074°10'0 0.0
2015-Apr-24 00:32N 40°39' W 074°10'0 0.0
2015-Apr-23 23:34N 40°39' W 074°10'2 2.0
2015-Apr-23 22:34N 40°39' W 074°07'6 6.4
2015-Apr-23 21:34N 40°43' W 074°01'1211.9
2015-Apr-23 20:33N 40°54' W 073°55'2 1.7
2015-Apr-23 19:31N 40°56' W 073°54'0 0.1
2015-Apr-23 15:33N 40°56' W 073°55'10 9.6
2015-Apr-23 14:34N 40°47' W 073°60'9 8.7
2015-Apr-23 13:33N 40°39' W 074°05'4 3.6
2015-Apr-23 12:34N 40°38' W 074°10'0 0.0
2015-Apr-23 11:34N 40°38' W 074°10'0 0.0
2015-Apr-23 10:34N 40°39' W 074°10'0 0.0
2015-Apr-23 09:32N 40°39' W 074°10'0 0.0
2015-Apr-23 08:33N 40°39' W 074°10'0 0.0
2015-Apr-23 07:33N 40°39' W 074°10'0 0.0
2015-Apr-23 06:34N 40°39' W 074°10'0 0.0
2015-Apr-23 05:33N 40°39' W 074°10'0 0.0
2015-Apr-23 04:34N 40°39' W 074°10'0 0.0
2015-Apr-23 03:34N 40°39' W 074°10'4 3.5
2015-Apr-23 02:30N 40°35' W 074°12'3 3.6
2015-Apr-23 01:32N 40°39' W 074°11'1 1.1
2015-Apr-23 00:33N 40°39' W 074°10'0 0.0
2015-Apr-22 23:34N 40°39' W 074°10'0 0.0
2015-Apr-22 22:34N 40°39' W 074°10'0 0.0
2015-Apr-22 21:33N 40°39' W 074°10'0 0.0
2015-Apr-22 20:33N 40°39' W 074°10'0 0.0
2015-Apr-22 19:33N 40°39' W 074°10'0 0.0
2015-Apr-22 18:33N 40°39' W 074°10'3 2.3
2015-Apr-22 17:16N 40°36' W 074°12'1 1.7
2015-Apr-22 16:33N 40°37' W 074°12'2 2.1
2015-Apr-22 15:34N 40°39' W 074°10'0 0.1
2015-Apr-22 14:34N 40°39' W 074°10'0 0.0
2015-Apr-22 13:33N 40°39' W 074°10'0 0.0
2015-Apr-22 12:34N 40°39' W 074°10'0 0.0
2015-Apr-22 11:33N 40°39' W 074°10'0 0.0
2015-Apr-22 10:34N 40°39' W 074°10'0 0.0
2015-Apr-22 09:33N 40°39' W 074°10'0 0.0
2015-Apr-22 08:33N 40°39' W 074°10'0 0.0
2015-Apr-22 07:33N 40°39' W 074°10'0 0.0
2015-Apr-22 06:33N 40°39' W 074°10'0 0.0
2015-Apr-22 05:33N 40°39' W 074°10'0 0.0
2015-Apr-22 04:33N 40°39' W 074°10'0 0.0
2015-Apr-22 03:33N 40°39' W 074°10'0 0.0
2015-Apr-22 02:32N 40°39' W 074°10'0 0.0
2015-Apr-22 01:33N 40°39' W 074°10'0 0.0
2015-Apr-22 00:33N 40°39' W 074°10'2 2.4
2015-Apr-21 23:33N 40°37' W 074°12'2 2.3
2015-Apr-21 22:33N 40°39' W 074°11'1 0.9
2015-Apr-21 21:34N 40°39' W 074°09'8 6.1
2015-Apr-21 20:19N 40°33' W 074°15'1 0.5
2015-Apr-21 18:14N 40°33' W 074°14'6 9.0
2015-Apr-21 17:33N 40°39' W 074°11'1 0.7
2015-Apr-21 16:34N 40°38' W 074°10'0 0.0
2015-Apr-21 15:33N 40°38' W 074°10'0 0.0
2015-Apr-21 14:34N 40°38' W 074°10'0 0.0
2015-Apr-21 13:33N 40°38' W 074°10'0 0.0
2015-Apr-21 12:33N 40°38' W 074°10'5 4.6
2015-Apr-21 11:34N 40°40' W 074°04'5 4.6
2015-Apr-21 10:33N 40°39' W 074°10'0 0.0
2015-Apr-21 09:33N 40°39' W 074°10'0 0.0
2015-Apr-21 08:22N 40°39' W 074°10'0 0.0
2015-Apr-21 07:33N 40°39' W 074°10'0 0.0
2015-Apr-21 06:33N 40°39' W 074°10'0 0.0
2015-Apr-21 05:30N 40°39' W 074°10'0 0.0
2015-Apr-21 04:33N 40°39' W 074°10'0 0.0
2015-Apr-21 03:33N 40°39' W 074°10'0 0.0
2015-Apr-21 02:33N 40°39' W 074°10'0 0.0
2015-Apr-21 01:34N 40°39' W 074°10'2 2.3
2015-Apr-21 00:34N 40°37' W 074°12'1 0.6
2015-Apr-20 23:33N 40°38' W 074°12'6 5.3
2015-Apr-20 22:31N 40°33' W 074°15'0 0.3
2015-Apr-20 21:30N 40°32' W 074°15'0 0.0
2015-Apr-20 19:22N 40°32' W 074°15'0 0.0
2015-Apr-20 18:13N 40°32' W 074°15'7 9.6
2015-Apr-20 17:32N 40°38' W 074°12'1 1.4
2015-Apr-20 16:33N 40°39' W 074°10'0 0.0
2015-Apr-20 15:33N 40°39' W 074°10'3 2.7
2015-Apr-20 14:33N 40°39' W 074°06'1 1.0
2015-Apr-20 13:34N 40°39' W 074°05'4 3.7
2015-Apr-20 12:33N 40°39' W 074°10'0 0.0
2015-Apr-20 11:32N 40°39' W 074°10'0 0.0
2015-Apr-20 10:32N 40°39' W 074°10'0 0.0
2015-Apr-20 09:30N 40°39' W 074°10'4 3.9
2015-Apr-20 08:33N 40°39' W 074°05'1 0.8
2015-Apr-20 07:33N 40°39' W 074°06'0 0.0
2015-Apr-20 06:33N 40°39' W 074°06'3 2.9
2015-Apr-20 05:33N 40°38' W 074°10'0 0.2
2015-Apr-20 04:21N 40°39' W 074°10'0 0.0
2015-Apr-20 03:33N 40°39' W 074°10'0 0.0
2015-Apr-20 02:32N 40°39' W 074°10'0 0.0
2015-Apr-20 01:33N 40°39' W 074°10'2 0.6
2015-Apr-19 21:33N 40°37' W 074°12'2 2.3
2015-Apr-19 20:34N 40°39' W 074°10'0 0.0
2015-Apr-19 19:33N 40°39' W 074°10'0 0.0
2015-Apr-19 18:33N 40°39' W 074°10'0 0.0
2015-Apr-19 17:34N 40°39' W 074°10'5 4.6
2015-Apr-19 16:34N 40°40' W 074°04'0 0.0
2015-Apr-19 15:33N 40°40' W 074°04'0 0.0
2015-Apr-19 14:34N 40°40' W 074°04'1 1.3
2015-Apr-19 13:34N 40°39' W 074°05'1 1.1
2015-Apr-19 12:34N 40°39' W 074°04'4 4.5
2015-Apr-19 11:34N 40°38' W 074°10'5 4.8
2015-Apr-19 10:34N 40°39' W 074°04'5 4.9
2015-Apr-19 09:34N 40°42' W 073°58'3 3.5
2015-Apr-19 08:34N 40°40' W 074°02'5 5.5
2015-Apr-19 07:34N 40°38' W 074°09'1 0.6
2015-Apr-19 06:33N 40°39' W 074°10'0 0.0
2015-Apr-19 05:33N 40°39' W 074°10'0 0.0
2015-Apr-19 04:32N 40°39' W 074°10'3 3.0
2015-Apr-19 03:34N 40°39' W 074°06'3 2.9
2015-Apr-19 02:34N 40°39' W 074°10'0 0.0
2015-Apr-19 01:33N 40°39' W 074°10'0 0.0
2015-Apr-19 00:34N 40°39' W 074°10'1 1.5
2015-Apr-18 23:34N 40°39' W 074°08'1 1.4
2015-Apr-18 22:34N 40°39' W 074°10'9 9.1
2015-Apr-18 21:34N 40°43' W 073°59'7 6.5
2015-Apr-18 20:33N 40°48' W 073°54'2 2.4
2015-Apr-18 19:33N 40°46' W 073°57'4 4.2
2015-Apr-18 18:34N 40°43' W 073°59'9 9.3
2015-Apr-18 17:34N 40°39' W 074°10'0 0.0
2015-Apr-18 16:34N 40°39' W 074°10'0 0.0
2015-Apr-18 15:33N 40°39' W 074°10'0 0.0
2015-Apr-18 14:34N 40°39' W 074°10'0 0.0
2015-Apr-18 13:34N 40°39' W 074°10'0 0.0
2015-Apr-18 12:33N 40°39' W 074°10'0 0.0
2015-Apr-18 11:34N 40°39' W 074°10'0 0.0
2015-Apr-18 10:34N 40°39' W 074°10'0 0.0
2015-Apr-18 09:33N 40°39' W 074°10'0 0.0
2015-Apr-18 08:34N 40°39' W 074°10'0 0.0
2015-Apr-18 07:33N 40°39' W 074°10'0 0.0
2015-Apr-18 06:27N 40°39' W 074°10'0 0.0
2015-Apr-18 05:25N 40°39' W 074°10'0 0.0
2015-Apr-18 04:32N 40°39' W 074°10'0 0.0
2015-Apr-18 03:32N 40°39' W 074°10'0 0.0
2015-Apr-18 02:33N 40°39' W 074°10'0 0.0
2015-Apr-18 01:31N 40°39' W 074°10'0 0.0
2015-Apr-18 00:33N 40°39' W 074°10'  

Dump ship's entire track history